Time;durP1;ratioP1;P1;durP2;ratioP2;P2;SDS_P1;SDS_P2;PMS_P1;PMS_P2;Temp;Humidity;BMP_temperature;BMP_pressure;BME280_temperature;BME280_humidity;BME280_pressure;Samples;Min_cycle;Max_cycle;Signal;HPM_P1;HPM_P2
2022/05/27 00:01:18;;;;;;;;;;;;;;;14.49;100.00;101880.56;2613577;31;20049;-54
2022/05/27 00:03:46;;;;;;;;;;;;;;;14.34;100.00;101867.41;2613597;36;20464;-53
2022/05/27 00:06:14;;;;;;;;;;;;;;;14.25;100.00;101873.63;2613480;36;20388;-50
2022/05/27 00:08:44;;;;;;;;;;;;;;;14.25;100.00;101861.94;2613060;36;19973;-56
2022/05/27 00:11:13;;;;;;;;;;;;;;;14.12;100.00;101862.13;2614670;36;19973;-54
2022/05/27 00:13:41;;;;;;;;;;;;;;;14.16;100.00;101858.19;2614842;36;20352;-52
2022/05/27 00:16:09;;;;;;;;;;;;;;;14.17;100.00;101859.91;2614307;31;20067;-51
2022/05/27 00:18:37;;;;;;;;;;;;;;;14.16;100.00;101859.06;2614064;36;20001;-52
2022/05/27 00:21:06;;;;;;;;;;;;;;;14.20;100.00;101865.88;2614865;36;20468;-56
2022/05/27 00:23:34;;;;;;;;;;;;;;;14.16;100.00;101869.88;2613824;36;20508;-53
2022/05/27 00:26:05;;;;;;;;;;;;;;;14.25;100.00;101873.63;2614629;31;20030;-57
2022/05/27 00:28:33;;;;;;;;;;;;;;;14.12;100.00;101871.13;2614822;31;20510;-55
2022/05/27 00:31:03;;;;;;;;;;;;;;;14.17;100.00;101865.31;2614399;36;19951;-55
2022/05/27 00:33:31;;;;;;;;;;;;;;;14.19;100.00;101868.72;2614372;31;19950;-54
2022/05/27 00:35:59;;;;;;;;;;;;;;;14.15;100.00;101867.31;2614827;36;20041;-55
2022/05/27 00:38:27;;;;;;;;;;;;;;;14.12;100.00;101870.25;2615841;36;20032;-53
2022/05/27 00:40:59;;;;;;;;;;;;;;;14.10;100.00;101862.28;2614663;47;20523;-55
2022/05/27 00:43:29;;;;;;;;;;;;;;;14.10;100.00;101864.97;2614070;36;20057;-57
2022/05/27 00:45:59;;;;;;;;;;;;;;;14.13;100.00;101877.41;2614653;36;20045;-58
2022/05/27 00:48:28;;;;;;;;;;;;;;;14.01;100.00;101866.66;2613792;36;20054;-58
2022/05/27 00:50:58;;;;;;;;;;;;;;;13.99;100.00;101870.50;2614002;31;20513;-57
2022/05/27 00:53:30;;;;;;;;;;;;;;;13.99;100.00;101868.66;2613555;36;20561;-59
2022/05/27 00:55:59;;;;;;;;;;;;;;;14.01;100.00;101872.06;2613861;36;20151;-57
2022/05/27 00:58:31;;;;;;;;;;;;;;;14.06;100.00;101873.50;2614140;36;20344;-54
2022/05/27 01:00:59;;;;;;;;;;;;;;;14.07;100.00;101875.25;2614165;31;20464;-54
2022/05/27 01:03:28;;;;;;;;;;;;;;;14.04;100.00;101875.50;2613929;31;20038;-58
2022/05/27 01:05:56;;;;;;;;;;;;;;;14.08;100.00;101876.97;2613400;31;20113;-57
2022/05/27 01:08:26;;;;;;;;;;;;;;;14.06;100.00;101882.50;2612245;31;19951;-60
2022/05/27 01:10:58;;;;;;;;;;;;;;;13.95;100.00;101864.47;2614507;36;20034;-58
2022/05/27 01:13:42;;;;;;;;;;;;;;;14.11;100.00;101871.28;2614736;36;20446;-58
2022/05/27 01:16:15;;;;;;;;;;;;;;;14.07;100.00;101875.25;2613821;31;19947;-56
2022/05/27 01:21:42;;;;;;;;;;;;;;;14.00;100.00;101869.50;2613719;36;19947;-56
2022/05/27 01:24:25;;;;;;;;;;;;;;;13.89;100.00;101866.88;2613368;36;19947;-60
2022/05/27 01:27:01;;;;;;;;;;;;;;;13.97;100.00;101862.53;2613836;36;20026;-57
2022/05/27 01:29:45;;;;;;;;;;;;;;;13.98;100.00;101856.09;2613431;36;19978;-57
2022/05/27 01:32:18;;;;;;;;;;;;;;;13.94;100.00;101865.50;2612977;36;19954;-57
2022/05/27 01:34:52;;;;;;;;;;;;;;;13.90;100.00;101869.44;2613835;36;19950;-54
2022/05/27 01:37:24;;;;;;;;;;;;;;;13.81;100.00;101865.69;2612969;36;19954;-57
2022/05/27 01:39:56;;;;;;;;;;;;;;;13.70;100.00;101870.31;2612640;36;20088;-57
2022/05/27 01:42:29;;;;;;;;;;;;;;;13.67;100.00;101877.69;2613650;36;20057;-60
2022/05/27 01:45:00;;;;;;;;;;;;;;;13.59;100.00;101872.09;2613814;36;20049;-56
2022/05/27 01:47:34;;;;;;;;;;;;;;;13.58;100.00;101869.53;2613549;36;20069;-57
2022/05/27 01:50:06;;;;;;;;;;;;;;;13.49;100.00;101861.19;2613537;36;19973;-57
2022/05/27 01:52:39;;;;;;;;;;;;;;;13.43;100.00;101858.16;2613570;36;20001;-56
2022/05/27 01:55:10;;;;;;;;;;;;;;;13.48;100.00;101847.81;2613812;36;20067;-57
2022/05/27 01:57:41;;;;;;;;;;;;;;;13.45;100.00;101854.31;2613955;36;20034;-57
2022/05/27 02:00:11;;;;;;;;;;;;;;;13.36;100.00;101848.84;2612965;36;20443;-56
2022/05/27 02:02:44;;;;;;;;;;;;;;;13.28;100.00;101850.31;2614431;31;20065;-60
2022/05/27 02:05:14;;;;;;;;;;;;;;;13.29;100.00;101854.75;2614004;36;19954;-57
2022/05/27 02:07:45;;;;;;;;;;;;;;;13.28;100.00;101858.44;2613239;36;20062;-58
2022/05/27 02:10:16;;;;;;;;;;;;;;;13.33;100.00;101855.34;2613092;36;19946;-58
2022/05/27 02:12:47;;;;;;;;;;;;;;;13.40;100.00;101859.28;2613896;36;20061;-58
2022/05/27 02:15:17;;;;;;;;;;;;;;;13.33;100.00;101856.19;2613711;36;19954;-58
2022/05/27 02:17:51;;;;;;;;;;;;;;;13.33;100.00;101858.88;2613499;36;19973;-58
2022/05/27 02:20:22;;;;;;;;;;;;;;;13.22;100.00;101861.66;2613334;36;20053;-57
2022/05/27 02:22:52;;;;;;;;;;;;;;;13.28;100.00;101861.13;2613286;36;19974;-56
2022/05/27 02:25:23;;;;;;;;;;;;;;;13.29;100.00;101862.88;2613803;36;20042;-58
2022/05/27 02:27:54;;;;;;;;;;;;;;;13.26;100.00;101862.25;2612933;31;20061;-62
2022/05/27 02:30:29;;;;;;;;;;;;;;;13.19;100.00;101872.75;2613275;36;20432;-56
2022/05/27 02:35:44;;;;;;;;;;;;;;;13.09;100.00;101871.78;2613840;36;19957;-57
2022/05/27 02:38:12;;;;;;;;;;;;;;;13.10;100.00;101871.66;2612977;31;19981;-56
2022/05/27 02:40:45;;;;;;;;;;;;;;;13.08;100.00;101873.59;2613680;36;20417;-57
2022/05/27 02:43:14;;;;;;;;;;;;;;;13.06;100.00;101863.91;2613899;36;19946;-58
2022/05/27 02:45:47;;;;;;;;;;;;;;;13.03;100.00;101864.16;2613886;36;20461;-57
2022/05/27 02:48:23;;;;;;;;;;;;;;;13.06;100.00;101863.91;2613393;36;20058;-57
2022/05/27 02:50:54;;;;;;;;;;;;;;;13.10;100.00;101870.78;2613638;36;19985;-52
2022/05/27 02:53:27;;;;;;;;;;;;;;;13.13;100.00;101871.41;2612721;36;20059;-57
2022/05/27 02:56:03;;;;;;;;;;;;;;;13.09;100.00;101869.94;2614027;36;20069;-57
2022/05/27 02:58:32;;;;;;;;;;;;;;;13.05;100.00;101883.84;2614133;36;20470;-57
2022/05/27 03:01:01;;;;;;;;;;;;;;;13.01;100.00;101871.56;2613160;36;20041;-54
2022/05/27 03:03:32;;;;;;;;;;;;;;;12.92;100.00;101875.88;2614093;36;19947;-58
2022/05/27 03:06:21;;;;;;;;;;;;;;;12.99;100.00;101868.13;2614079;36;20058;-57
2022/05/27 03:08:57;;;;;;;;;;;;;;;12.89;100.00;101871.56;2613776;36;20034;-59
2022/05/27 03:11:28;;;;;;;;;;;;;;;12.94;100.00;101872.06;2613257;36;20564;-57
2022/05/27 03:14:07;;;;;;;;;;;;;;;12.94;100.00;101872.06;2613688;36;20042;-57
2022/05/27 03:16:40;;;;;;;;;;;;;;;12.95;100.00;101870.22;2613710;36;20649;-57
2022/05/27 03:19:26;;;;;;;;;;;;;;;12.90;100.00;101870.59;2613004;36;19977;-57
2022/05/27 03:21:58;;;;;;;;;;;;;;;12.91;100.00;101866.91;2613136;36;20106;-57
2022/05/27 03:24:40;;;;;;;;;;;;;;;12.96;100.00;101864.69;2613000;36;19951;-57
2022/05/27 03:27:15;;;;;;;;;;;;;;;12.93;100.00;101870.34;2614052;36;20481;-59
2022/05/27 03:29:46;;;;;;;;;;;;;;;12.94;100.00;101872.06;2613343;36;20086;-57
2022/05/27 03:32:20;;;;;;;;;;;;;;;12.93;100.00;101869.50;2612039;36;20091;-58
2022/05/27 03:34:53;;;;;;;;;;;;;;;12.96;100.00;101872.78;2613358;36;20066;-58
2022/05/27 03:37:25;;;;;;;;;;;;;;;13.01;100.00;101863.44;2613470;36;20436;-53
2022/05/27 03:39:59;;;;;;;;;;;;;;;12.98;100.00;101869.97;2612650;36;19947;-53
2022/05/27 03:42:27;;;;;;;;;;;;;;;13.00;100.00;101872.53;2613622;36;20526;-58
2022/05/27 03:44:58;;;;;;;;;;;;;;;12.97;100.00;101873.66;2613474;36;20049;-58
2022/05/27 03:47:26;;;;;;;;;;;;;;;12.99;100.00;101887.06;2614822;31;20034;-54
2022/05/27 03:49:57;;;;;;;;;;;;;;;12.90;100.00;101881.41;2614136;36;20050;-60
2022/05/27 03:52:26;;;;;;;;;;;;;;;13.02;100.00;101884.94;2613808;36;19957;-59
2022/05/27 03:54:54;;;;;;;;;;;;;;;13.00;100.00;101886.03;2614119;36;20077;-58
2022/05/27 03:57:23;;;;;;;;;;;;;;;12.99;100.00;101878.94;2614131;36;20055;-57
2022/05/27 03:59:50;;;;;;;;;;;;;;;13.01;100.00;101883.22;2614184;36;19946;-58
2022/05/27 04:02:19;;;;;;;;;;;;;;;12.95;100.00;101881.03;2613226;36;20033;-58
2022/05/27 04:04:47;;;;;;;;;;;;;;;12.89;100.00;101878.84;2614241;36;20057;-60
2022/05/27 04:07:17;;;;;;;;;;;;;;;12.84;100.00;101889.16;2614142;36;20037;-60
2022/05/27 04:09:45;;;;;;;;;;;;;;;12.86;100.00;101890.75;2614264;36;20819;-58
2022/05/27 04:12:14;;;;;;;;;;;;;;;12.87;100.00;101881.66;2613663;36;20054;-58
2022/05/27 04:14:42;;;;;;;;;;;;;;;12.83;100.00;101882.88;2614084;36;20042;-58
2022/05/27 04:19:51;;;;;;;;;;;;;;;12.73;100.00;101885.47;2611878;36;19951;-57
2022/05/27 04:22:22;;;;;;;;;;;;;;;12.76;100.00;101879.84;2612513;36;20429;-57
2022/05/27 04:24:50;;;;;;;;;;;;;;;12.77;100.00;101886.94;2613036;36;20066;-57
2022/05/27 04:27:18;;;;;;;;;;;;;;;12.69;100.00;101875.03;2613677;36;20058;-56
2022/05/27 04:29:48;;;;;;;;;;;;;;;12.76;100.00;101884.38;2613152;36;19974;-55
2022/05/27 04:32:16;;;;;;;;;;;;;;;12.66;100.00;101883.41;2614757;31;19957;-57
2022/05/27 04:34:45;;;;;;;;;;;;;;;12.65;100.00;101881.69;2614228;36;20610;-55
2022/05/27 04:37:13;;;;;;;;;;;;;;;12.66;100.00;101886.09;2613606;36;20066;-57
2022/05/27 04:39:44;;;;;;;;;;;;;;;12.81;100.00;101887.56;2614331;36;20488;-56
2022/05/27 04:42:12;;;;;;;;;;;;;;;12.92;100.00;101884.81;2614093;36;20051;-60
2022/05/27 04:44:40;;;;;;;;;;;;;;;12.97;100.00;101882.63;2613975;36;20036;-51
2022/05/27 04:47:11;;;;;;;;;;;;;;;13.07;100.00;101895.38;2613660;36;20725;-55
2022/05/27 04:49:54;;;;;;;;;;;;;;;13.17;100.00;101890.06;2614115;36;19950;-56
2022/05/27 04:52:24;;;;;;;;;;;;;;;13.23;100.00;101893.09;2613989;36;19982;-55
2022/05/27 04:54:55;;;;;;;;;;;;;;;13.33;100.00;101894.03;2613704;36;19954;-57
2022/05/27 04:57:24;;;;;;;;;;;;;;;13.46;100.00;101893.06;2614114;36;19950;-57
2022/05/27 04:59:52;;;;;;;;;;;;;;;13.44;100.00;101892.31;2614489;36;20075;-59
2022/05/27 05:02:21;;;;;;;;;;;;;;;13.54;100.00;101889.69;2613591;36;20371;-57
2022/05/27 05:04:49;;;;;;;;;;;;;;;13.52;100.00;101884.41;2614506;36;20521;-57
2022/05/27 05:07:18;;;;;;;;;;;;;;;13.72;100.00;101900.78;2614175;36;19946;-57
2022/05/27 05:09:46;;;;;;;;;;;;;;;13.88;100.00;101897.63;2613878;36;20429;-57
2022/05/27 05:12:22;;;;;;;;;;;;;;;13.97;100.00;101892.28;2613793;36;21014;-57
2022/05/27 05:14:53;;;;;;;;;;;;;;;14.12;100.00;101891.91;2615268;36;19977;-57
2022/05/27 05:17:22;;;;;;;;;;;;;;;14.18;100.00;101892.25;2613007;36;19974;-62
2022/05/27 05:19:53;;;;;;;;;;;;;;;14.10;100.00;101883.94;2614313;31;20030;-57
2022/05/27 05:22:21;;;;;;;;;;;;;;;14.11;100.00;101892.94;2612992;36;19951;-57
2022/05/27 05:24:49;;;;;;;;;;;;;;;14.24;100.00;101901.69;2613862;36;19970;-61
2022/05/27 05:27:20;;;;;;;;;;;;;;;14.07;100.00;101899.59;2614561;36;20102;-58
2022/05/27 05:29:48;;;;;;;;;;;;;;;14.07;100.00;101894.19;2613029;31;20101;-57
2022/05/27 05:32:16;;;;;;;;;;;;;;;14.24;100.00;101899.00;2606189;31;20205;-55
2022/05/27 05:34:44;;;;;;;;;;;;;;;14.30;100.00;101906.56;2613418;36;20433;-57
2022/05/27 05:37:12;;;;;;;;;;;;;;;14.35;100.00;101901.63;2612844;36;20046;-53
2022/05/27 05:39:40;;;;;;;;;;;;;;;14.56;100.00;101900.72;2612830;36;19951;-58
2022/05/27 05:42:09;;;;;;;;;;;;;;;14.49;100.00;101913.09;2612937;36;20444;-58
2022/05/27 05:44:40;;;;;;;;;;;;;;;14.53;100.00;101909.97;2612774;36;20473;-57
2022/05/27 05:47:09;;;;;;;;;;;;;;;14.68;100.00;101915.03;2612762;36;19947;-57
2022/05/27 05:49:37;;;;;;;;;;;;;;;14.58;100.00;101914.97;2613319;36;19957;-60
2022/05/27 05:52:05;;;;;;;;;;;;;;;14.51;100.00;101921.91;2613801;36;20066;-61
2022/05/27 05:54:34;;;;;;;;;;;;;;;14.52;100.00;101920.94;2613312;36;20041;-57
2022/05/27 05:57:03;;;;;;;;;;;;;;;14.43;100.00;101921.72;2613837;31;19946;-57
2022/05/27 05:59:32;;;;;;;;;;;;;;;14.22;100.00;101911.78;2613630;36;19947;-56
2022/05/27 06:02:03;;;;;;;;;;;;;;;14.56;100.00;101908.84;2613523;36;19958;-58
2022/05/27 06:04:31;;;;;;;;;;;;;;;14.64;100.00;101906.31;2613397;36;20034;-57
2022/05/27 06:06:59;;;;;;;;;;;;;;;14.49;100.00;101908.50;2613036;36;20034;-61
2022/05/27 06:09:28;;;;;;;;;;;;;;;14.60;100.00;101909.41;2613201;36;20424;-61
2022/05/27 06:11:56;;;;;;;;;;;;;;;14.69;100.00;101919.44;2614002;36;19958;-59
2022/05/27 06:14:24;;;;;;;;;;;;;;;14.78;100.00;101912.34;2613769;36;20066;-61
2022/05/27 06:16:53;;;;;;;;;;;;;;;14.82;100.00;101913.78;2612425;36;20041;-65
2022/05/27 06:19:23;;;;;;;;;;;;;;;14.59;100.00;101924.81;2613590;36;19947;-70
2022/05/27 06:21:51;;;;;;;;;;;;;;;14.32;100.00;101928.09;2612805;36;19950;-62
2022/05/27 06:24:19;;;;;;;;;;;;;;;14.26;100.00;101923.22;2613283;31;19946;-59
2022/05/27 06:26:48;;;;;;;;;;;;;;;14.47;100.00;101931.31;2613688;36;19977;-66
2022/05/27 06:34:39;;;;;;;;;;;;;;;14.49;100.00;101946.44;2613842;31;19953;-58
2022/05/27 06:37:09;;;;;;;;;;;;;;;14.58;100.00;101950.19;2613929;36;20055;-65
2022/05/27 06:39:38;;;;;;;;;;;;;;;14.63;100.00;101950.66;2613193;36;20094;-64
2022/05/27 06:42:08;;;;;;;;;;;;;;;14.71;100.00;101956.25;2613715;36;20065;-58
2022/05/27 06:44:36;;;;;;;;;;;;;;;14.64;100.00;101954.25;2613596;36;19981;-58
2022/05/27 06:47:05;;;;;;;;;;;;;;;14.59;100.00;101957.31;2612792;36;19946;-63
2022/05/27 06:49:33;;;;;;;;;;;;;;;14.51;100.00;101960.69;2613860;31;20049;-64
2022/05/27 06:52:05;;;;;;;;;;;;;;;14.64;100.00;101951.53;2613692;36;19963;-64
2022/05/27 06:54:34;;;;;;;;;;;;;;;14.82;100.00;101966.13;2612356;36;20681;-62
2022/05/27 06:57:02;;;;;;;;;;;;;;;14.56;100.00;101963.03;2612753;36;19946;-59
2022/05/27 06:59:30;;;;;;;;;;;;;;;14.71;100.00;101971.66;2612429;36;19951;-58
2022/05/27 07:01:58;;;;;;;;;;;;;;;14.97;100.00;101966.63;2611405;36;19955;-69
2022/05/27 07:04:26;;;;;;;;;;;;;;;15.19;100.00;101959.25;2612239;31;19950;-64
2022/05/27 07:06:57;;;;;;;;;;;;;;;15.28;100.00;101968.41;2612750;36;19951;-59
2022/05/27 07:09:27;;;;;;;;;;;;;;;15.43;100.00;101967.03;2612362;36;20057;-61
2022/05/27 07:11:56;;;;;;;;;;;;;;;15.41;100.00;101972.59;2612101;36;20055;-58
2022/05/27 07:14:24;;;;;;;;;;;;;;;15.55;100.00;101967.75;2613576;36;20329;-71
2022/05/27 07:16:52;;;;;;;;;;;;;;;15.52;100.00;101968.88;2613292;47;20002;-59
2022/05/27 07:19:22;;;;;;;;;;;;;;;15.27;100.00;101967.56;2613334;36;19954;-63
2022/05/27 07:21:52;;;;;;;;;;;;;;;15.51;100.00;101977.16;2613990;36;19957;-59
2022/05/27 07:24:27;;;;;;;;;;;;;;;15.48;100.00;101967.44;2611870;36;19957;-67
2022/05/27 07:26:58;;;;;;;;;;;;;;;15.36;100.00;101964.00;2612375;36;19967;-66
2022/05/27 07:29:26;;;;;;;;;;;;;;;15.20;100.00;101966.41;2614317;36;20026;-59
2022/05/27 07:31:54;;;;;;;;;;;;;;;15.44;100.00;101973.28;2612092;36;21888;-59
2022/05/27 07:34:23;;;;;;;;;;;;;;;15.48;100.00;101970.16;2614488;36;19950;-59
2022/05/27 07:36:51;;;;;;;;;;;;;;;15.32;100.00;101978.84;2612452;36;20463;-67
2022/05/27 07:39:19;;;;;;;;;;;;;;;15.27;100.00;101974.81;2612782;36;19957;-64
2022/05/27 07:41:47;;;;;;;;;;;;;;;15.70;100.00;101979.88;2614075;36;20045;-59
2022/05/27 07:44:17;;;;;;;;;;;;;;;16.14;100.00;101974.03;2613454;36;20058;-58
2022/05/27 07:46:45;;;;;;;;;;;;;;;16.13;100.00;101983.16;2613801;36;19969;-59
2022/05/27 07:49:13;;;;;;;;;;;;;;;16.07;100.00;101981.03;2615981;36;20041;-66
2022/05/27 07:51:41;;;;;;;;;;;;;;;16.44;100.00;101992.00;2613119;36;20046;-64
2022/05/27 07:54:11;;;;;;;;;;;;;;;16.37;100.00;101981.84;2613102;36;19958;-60
2022/05/27 07:56:40;;;;;;;;;;;;;;;16.23;100.00;101992.16;2613177;36;20057;-60
2022/05/27 07:59:08;;;;;;;;;;;;;;;15.79;100.00;101990.94;2613791;36;19951;-59
2022/05/27 08:01:40;;;;;;;;;;;;;;;15.05;100.00;101983.06;2613904;36;20316;-66
2022/05/27 08:04:09;;;;;;;;;;;;;;;15.55;100.00;101994.88;2612776;36;19946;-60
2022/05/27 08:06:37;;;;;;;;;;;;;;;15.63;100.00;101995.00;2611948;36;20725;-60
2022/05/27 08:09:05;;;;;;;;;;;;;;;16.05;100.00;102000.19;2611324;36;19950;-60
2022/05/27 08:11:33;;;;;;;;;;;;;;;16.43;100.00;101992.13;2613468;36;20514;-60
2022/05/27 08:14:02;;;;;;;;;;;;;;;16.57;100.00;101993.53;2613429;32;20444;-65
2022/05/27 08:16:32;;;;;;;;;;;;;;;16.06;100.00;101996.50;2613043;36;19954;-65
2022/05/27 08:19:03;;;;;;;;;;;;;;;16.18;100.00;102004.47;2613312;36;19971;-63
2022/05/27 08:21:36;;;;;;;;;;;;;;;16.14;100.00;101993.03;2613577;31;20432;-66
2022/05/27 08:24:04;;;;;;;;;;;;;;;16.25;100.00;102000.16;2612380;36;19975;-63
2022/05/27 08:26:32;;;;;;;;;;;;;;;16.36;100.00;102005.44;2612701;36;20473;-66
2022/05/27 08:29:00;;;;;;;;;;;;;;;16.20;100.00;102003.31;2612714;36;20372;-60
2022/05/27 08:31:28;;;;;;;;;;;;;;;16.01;100.00;102015.06;2611893;36;19977;-60
2022/05/27 08:39:19;;;;;;;;;;;;;;;16.15;100.00;102015.63;2611277;36;19959;-59
2022/05/27 08:41:54;;;;;;;;;;;;;;;16.28;100.00;102011.63;2613461;36;19951;-59
2022/05/27 08:44:33;;;;;;;;;;;;;;;16.95;100.00;102008.00;2613128;36;20061;-59
2022/05/27 08:47:04;;;;;;;;;;;;;;;17.00;100.00;102011.13;2613250;36;20054;-61
2022/05/27 08:49:34;;;;;;;;;;;;;;;17.16;100.00;102014.03;2612938;36;20057;-58
2022/05/27 08:52:07;;;;;;;;;;;;;;;17.22;100.00;102020.75;2612223;36;20527;-66
2022/05/27 08:54:38;;;;;;;;;;;;;;;17.19;100.00;102021.06;2613315;36;20042;-71
2022/05/27 08:59:51;;;;;;;;;;;;;;;16.79;100.00;102014.91;2612862;36;19955;-60
2022/05/27 09:02:25;;;;;;;;;;;;;;;16.97;100.00;102015.03;2613925;31;20638;-62
2022/05/27 09:04:59;;;;;;;;;;;;;;;16.74;100.00;102017.22;2612963;36;20077;-67
2022/05/27 09:07:32;;;;;;;;;;;;;;;17.39;100.00;102020.94;2613283;36;20411;-60
2022/05/27 09:10:02;;;;;;;;;;;;;;;17.01;100.00;102026.44;2614823;36;19953;-63
2022/05/27 09:12:40;;;;;;;;;;;;;;;17.09;100.00;102021.13;2614186;36;20041;-60
2022/05/27 09:15:17;;;;;;;;;;;;;;;17.32;100.00;102017.97;2613498;36;20364;-62
2022/05/27 09:17:48;;;;;;;;;;;;;;;17.44;100.00;102029.50;2611271;31;19957;-61
2022/05/27 09:20:26;;;;;;;;;;;;;;;17.59;100.00;102029.84;2612822;36;19950;-62
2022/05/27 09:23:02;;;;;;;;;;;;;;;17.82;100.00;102025.66;2613695;36;19975;-66
2022/05/27 09:25:35;;;;;;;;;;;;;;;17.24;100.00;102035.06;2613952;36;19946;-60
2022/05/27 09:28:07;;;;;;;;;;;;;;;17.25;100.00;102025.88;2630591;36;20078;-63
2022/05/27 09:30:37;;;;;;;;;;;;;;;17.30;100.00;102025.44;2613269;36;20050;-67
2022/05/27 09:33:06;;;;;;;;;;;;;;;17.46;100.00;102025.63;2612567;36;20018;-65
2022/05/27 09:35:38;;;;;;;;;;;;;;;17.14;100.00;102024.22;2612678;36;20065;-61
2022/05/27 09:38:09;;;;;;;;;;;;;;;17.22;100.00;102026.19;2612729;31;20791;-60
2022/05/27 09:40:40;;;;;;;;;;;;;;;17.06;100.00;102026.84;2614395;36;19954;-62
2022/05/27 09:43:17;;;;;;;;;;;;;;;16.46;100.00;102032.63;2613990;54;20444;-68
2022/05/27 09:45:45;;;;;;;;;;;;;;;16.54;100.00;102037.31;2613059;36;19973;-59
2022/05/27 09:48:13;;;;;;;;;;;;;;;17.38;100.00;102041.84;2612944;36;19966;-62
2022/05/27 09:50:43;;;;;;;;;;;;;;;17.39;100.00;102032.69;2612725;36;20046;-64
2022/05/27 09:53:16;;;;;;;;;;;;;;;17.32;100.00;102026.16;2612399;36;19947;-66
2022/05/27 09:55:49;;;;;;;;;;;;;;;17.06;100.00;102043.16;2612578;36;19946;-63
2022/05/27 09:58:24;;;;;;;;;;;;;;;17.38;100.00;102041.84;2612336;36;19979;-62
2022/05/27 10:00:52;;;;;;;;;;;;;;;17.48;100.00;102036.38;2611718;36;20031;-60
2022/05/27 10:03:25;;;;;;;;;;;;;;;17.99;100.00;102050.34;2613155;36;20453;-66
2022/05/27 10:05:54;;;;;;;;;;;;;;;18.10;91.05;102036.50;2612706;31;19953;-65
2022/05/27 10:08:33;;;;;;;;;;;;;;;18.19;98.58;102040.16;2612135;36;19950;-60
2022/05/27 10:11:11;;;;;;;;;;;;;;;17.93;93.88;102038.22;2610944;36;20046;-67
2022/05/27 10:13:47;;;;;;;;;;;;;;;17.33;100.00;102030.59;2610922;36;19962;-65
2022/05/27 10:16:16;;;;;;;;;;;;;;;17.27;100.00;102042.06;2611903;36;19977;-59
2022/05/27 10:18:45;;;;;;;;;;;;;;;16.72;100.00;102021.94;2612966;36;20033;-61
2022/05/27 10:21:16;;;;;;;;;;;;;;;16.86;100.00;102039.63;2613739;36;19969;-61
2022/05/27 10:23:48;;;;;;;;;;;;;;;16.40;100.00;102038.59;2613026;36;20448;-71
2022/05/27 10:26:24;;;;;;;;;;;;;;;15.99;100.00;102046.94;2613254;36;19954;-64
2022/05/27 10:29:00;;;;;;;;;;;;;;;16.56;100.00;102047.03;2612236;36;20004;-65
2022/05/27 10:31:28;;;;;;;;;;;;;;;17.39;100.00;102038.13;2613381;36;19952;-66
2022/05/27 10:33:56;;;;;;;;;;;;;;;17.88;100.00;102047.84;2612018;36;20426;-66
2022/05/27 10:36:39;;;;;;;;;;;;;;;17.83;100.00;102043.72;2612715;31;19954;-60
2022/05/27 10:39:15;;;;;;;;;;;;;;;17.90;100.00;102046.69;2612489;36;20424;-60
2022/05/27 10:41:53;;;;;;;;;;;;;;;17.40;100.00;102044.44;2612794;36;20362;-66
2022/05/27 10:44:24;;;;;;;;;;;;;;;17.48;100.00;102039.09;2611649;36;19961;-61
2022/05/27 10:46:55;;;;;;;;;;;;;;;16.91;100.00;102056.38;2612030;36;20444;-60
2022/05/27 10:49:36;;;;;;;;;;;;;;;17.52;100.00;102054.97;2613107;36;20030;-64
2022/05/27 10:52:09;;;;;;;;;;;;;;;17.63;100.00;102055.75;2612746;36;19986;-60
2022/05/27 10:54:45;;;;;;;;;;;;;;;18.47;100.00;102054.50;2611150;36;19985;-66
2022/05/27 11:03:12;;;;;;;;;;;;;;;18.08;100.00;102071.22;2612965;36;20441;-66
2022/05/27 11:05:50;;;;;;;;;;;;;;;17.58;100.00;102058.94;2613279;36;19950;-58
2022/05/27 11:08:25;;;;;;;;;;;;;;;17.20;100.00;102066.31;2610708;36;20466;-63
2022/05/27 11:11:01;;;;;;;;;;;;;;;17.74;100.00;102074.59;2612566;36;20355;-65
2022/05/27 11:16:37;;;;;;;;;;;;;;;18.72;95.96;102058.25;2612153;36;19957;-71
2022/05/27 11:19:17;;;;;;;;;;;;;;;19.33;87.55;102061.00;2611966;36;20030;-59
2022/05/27 11:21:52;;;;;;;;;;;;;;;18.39;81.29;102076.25;2612034;36;19970;-60
2022/05/27 11:24:45;;;;;;;;;;;;;;;17.20;96.12;102073.63;2613498;36;20074;-63
2022/05/27 11:27:22;;;;;;;;;;;;;;;18.18;95.06;102082.91;2613726;36;19950;-59
2022/05/27 11:29:58;;;;;;;;;;;;;;;19.17;78.42;102082.75;2613253;36;20066;-63
2022/05/27 11:32:37;;;;;;;;;;;;;;;18.73;72.41;102070.03;2613461;36;19951;-67
2022/05/27 11:35:11;;;;;;;;;;;;;;;18.66;72.17;102080.72;2613760;36;19969;-60
2022/05/27 11:37:47;;;;;;;;;;;;;;;19.24;68.65;102075.63;2612184;36;20665;-65
2022/05/27 11:40:20;;;;;;;;;;;;;;;18.64;68.89;102085.47;2613058;36;19970;-70
2022/05/27 11:43:01;;;;;;;;;;;;;;;17.95;77.88;102087.94;2613518;36;19947;-62
2022/05/27 11:45:30;;;;;;;;;;;;;;;17.54;89.08;102089.34;2613047;36;19977;-60
2022/05/27 11:48:06;;;;;;;;;;;;;;;17.01;95.26;102099.03;2613099;36;20086;-59
2022/05/27 11:50:47;;;;;;;;;;;;;;;17.71;90.35;102088.53;2629548;31;20385;-59
2022/05/27 11:53:25;;;;;;;;;;;;;;;17.73;76.26;102089.22;2612122;36;20066;-60
2022/05/27 11:56:02;;;;;;;;;;;;;;;17.69;81.03;102085.09;2613408;36;20030;-65
2022/05/27 11:58:38;;;;;;;;;;;;;;;18.10;80.24;102093.72;2611227;36;19947;-61
2022/05/27 12:01:09;;;;;;;;;;;;;;;18.21;71.15;102092.59;2612516;31;19973;-61
2022/05/27 12:03:41;;;;;;;;;;;;;;;18.13;74.17;102101.56;2612124;36;19969;-65
2022/05/27 12:06:13;;;;;;;;;;;;;;;17.92;80.14;102107.34;2613314;36;20086;-64
2022/05/27 12:08:43;;;;;;;;;;;;;;;18.49;78.03;102106.13;2613051;36;19951;-63
2022/05/27 12:11:14;;;;;;;;;;;;;;;17.99;75.21;102118.44;2615001;36;20087;-60
2022/05/27 12:13:47;;;;;;;;;;;;;;;17.52;81.63;102109.41;2614830;36;19950;-64
2022/05/27 12:16:16;;;;;;;;;;;;;;;17.43;86.04;102099.44;2614708;36;20047;-65
2022/05/27 12:18:46;;;;;;;;;;;;;;;17.25;83.73;102106.66;2613690;36;19955;-60
2022/05/27 12:21:16;;;;;;;;;;;;;;;17.12;90.43;102117.88;2613648;36;19951;-62
2022/05/27 12:23:46;;;;;;;;;;;;;;;17.46;92.44;102117.28;2613292;36;20030;-63
2022/05/27 12:26:15;;;;;;;;;;;;;;;17.63;93.42;102121.94;2614167;36;20046;-59
2022/05/27 12:28:48;;;;;;;;;;;;;;;18.43;85.69;102121.25;2614375;36;19954;-66
2022/05/27 12:31:17;;;;;;;;;;;;;;;18.08;78.49;102123.00;2614255;36;20557;-62
2022/05/27 12:33:45;;;;;;;;;;;;;;;18.01;81.29;102105.56;2611744;36;19958;-61
2022/05/27 12:36:15;;;;;;;;;;;;;;;18.10;83.97;102115.50;2613987;36;20098;-60
2022/05/27 12:38:47;;;;;;;;;;;;;;;18.42;85.79;102129.59;2613986;36;20041;-64
2022/05/27 12:41:18;;;;;;;;;;;;;;;18.64;84.70;102130.97;2613417;36;20313;-64
2022/05/27 12:44:01;;;;;;;;;;;;;;;18.77;77.44;102120.53;2614873;36;19982;-60
2022/05/27 12:46:34;;;;;;;;;;;;;;;19.11;78.63;102122.47;2614785;36;19950;-59
2022/05/27 12:49:17;;;;;;;;;;;;;;;18.18;74.30;102129.22;2614590;36;20545;-68
2022/05/27 12:51:47;;;;;;;;;;;;;;;17.56;87.92;102125.44;2614353;36;20034;-61
2022/05/27 12:54:40;;;;;;;;;;;;;;;18.45;86.60;102132.88;2614727;36;20062;-60
2022/05/27 13:03:07;;;;;;;;;;;;;;;17.77;84.08;102127.88;2613811;31;19947;-60
2022/05/27 13:05:51;;;;;;;;;;;;;;;17.04;87.34;102137.66;2613281;31;19973;-61
2022/05/27 13:08:22;;;;;;;;;;;;;;;17.51;91.25;102131.34;2613457;36;19950;-60
2022/05/27 13:10:51;;;;;;;;;;;;;;;17.62;87.60;102138.44;2613970;36;20454;-61
2022/05/27 13:13:25;;;;;;;;;;;;;;;18.25;94.30;102136.78;2614438;36;20066;-60
2022/05/27 13:15:56;;;;;;;;;;;;;;;18.12;79.59;102137.16;2614847;36;20339;-65
2022/05/27 13:18:39;;;;;;;;;;;;;;;17.03;83.09;102146.81;2613572;36;20443;-62
2022/05/27 13:21:12;;;;;;;;;;;;;;;16.99;91.12;102139.97;2614542;36;20050;-65
2022/05/27 13:23:55;;;;;;;;;;;;;;;16.66;100.00;102142.13;2613748;36;19953;-60
2022/05/27 13:26:33;;;;;;;;;;;;;;;17.07;99.78;102153.69;2614328;36;20502;-62